Flight Track Log - Related Links

Times and Time Zones

All times are in EDT time to prevent confusion due to time zone crossing. See the PDT4373 flight status page for this flight to view local times or setup timezone preferences in your user account.

Time Position Orientation Groundspeed Altitude Reporting Facility
EDT Latitude Longitude Course Direction KTS km/h feet Rate Location/Type
Tue 11:39:00 42.0389 -75.9241 180° South  Level Estimated
Tue 11:40:00 41.9807 -75.9260 181° South  Level FlightAware Approximate
Tue 11:41:00 41.9226 -75.9278 181° South  Level FlightAware Approximate
Tue 11:42:00 41.8644 -75.9297 181° South  Level FlightAware Approximate
Tue 11:43:00 41.8082 -75.9097 154° Southeast  Level Estimated
Tue 11:44:00 41.7520 -75.8897 160° South  Level Estimated
Tue 11:45:00 41.6957 -75.8697 159° South  Level Estimated
Tue 11:46:00 41.6395 -75.8496 165° South  Level FlightAware Approximate
Tue 11:47:00 41.5833 -75.8296 165° South  Level FlightAware Approximate
Tue 11:48:00 41.5271 -75.8098 153° Southeast  Level Estimated
Tue 11:49:00 41.4709 -75.7899 161° South  Level Estimated
Tue 11:50:00 41.4167 -75.7616 159° South  Level FlightAware Approximate
Tue 11:51:00 41.3625 -75.7333 159° South  Level FlightAware Approximate
Tue 11:52:00 41.3062 -75.7142 162° South  Level Estimated
Tue 11:53:00 41.2515 -75.6878 160° South  Level FlightAware Approximate
Tue 11:54:00 41.1968 -75.6614 160° South  Level FlightAware Approximate
Tue 11:55:00 41.1422 -75.6350 160° South  Level FlightAware Approximate
Tue 11:56:00 41.0875 -75.6087 160° South  Level FlightAware Approximate
Tue 11:57:00 41.0308 -75.5912 163° South  Level Estimated
Tue 11:58:00 40.9758 -75.5664 161° South  Level FlightAware Approximate
Tue 11:59:00 40.9207 -75.5416 161° South  Level FlightAware Approximate
Tue 12:00:00 40.8656 -75.5168 161° South  Level FlightAware Approximate
Tue 12:01:00 40.8105 -75.4921 161° South  Level FlightAware Approximate
Tue 12:02:00 40.7536 -75.4766 190° South  Level Estimated
Tue 12:03:00 40.6955 -75.4820 184° South  Level FlightAware Approximate
Tue 12:03:58 40.6500 -75.5333 199° South 248 459 5.900  Level Philadelphia TRACON
Tue 12:04:00 40.6375 -75.4873 184° South  Level FlightAware Approximate
Tue 12:05:00 40.5795 -75.4927 184° South  Level FlightAware Approximate
Tue 12:05:10 40.5833 -75.5167 169° South 247 457 5.100  Level Philadelphia TRACON
Tue 12:06:00 40.5234 -75.4725 187° South  Level Estimated
Tue 12:06:10 40.5167 -75.5000 169° South 239 443 5.000  Level Philadelphia TRACON
Tue 12:07:00 40.4673 -75.4524 190° South  Level Estimated
Tue 12:07:11 40.4500 -75.4667 159° South 240 444 5.000  Level Philadelphia TRACON
Tue 12:08:00 40.4123 -75.4771 199° South  Level FlightAware Approximate
Tue 12:08:11 40.3833 -75.4333 159° South 238 441 5.000  Level Philadelphia TRACON
Tue 12:09:00 40.3572 -75.5019 199° South  Level FlightAware Approximate
Tue 12:09:17 40.3167 -75.4000 159° South 240 444 5.000  Level Philadelphia TRACON
Tue 12:10:11 40.2667 -75.3500 143° Southeast 241 446 5.000 -526 Level Philadelphia TRACON
Tue 12:11:11 40.2167 -75.3167 153° Southeast 259 480 4.000 -526 Descending Philadelphia TRACON
Tue 12:12:05 40.1500 -75.2833 159° South 250 463 4.000 -53 Level Philadelphia TRACON
Tue 12:13:05 40.0833 -75.2333 150° Southeast 241 446 3.900  Descending Philadelphia TRACON
Tue 12:14:05 40.0333 -75.2000 153° Southeast 235 435 4.000 48 Climbing Philadelphia TRACON
Tue 12:15:11 39.9667 -75.1833 169° South 230 426 4.000  Level Philadelphia TRACON
Tue 12:16:11 39.9000 -75.1667 169° South 232 430 4.000 -684 Level Philadelphia TRACON
Tue 12:17:05 39.8500 -75.1333 153° Southeast 202 373 2.700 -1.321 Descending Philadelphia TRACON
Tue 12:18:00 39.8167 -75.1500 201° Southwest 171 317 1.600 -789 Descending Philadelphia TRACON
Tue 12:18:59 39.8167 -75.2000 270° West 140 259 1.200 -650 Descending Philadelphia TRACON
Tue 12:20:00 39.8500 -75.2167 339° North 123 229 300 -885 Descending Philadelphia TRACON

Login

Don't have an account? Register now (free) for customized features, flight alerts, and more!